sensor_id;sensor_type;location;lat;lon;timestamp;P1;durP1;ratioP1;P2;durP2;ratioP2
11313;SDS011;5712;48.858;9.206;2023-04-09T00:00:07;16.03;;;12.30;;
11313;SDS011;5712;48.858;9.206;2023-04-09T00:02:35;13.70;;;11.67;;
11313;SDS011;5712;48.858;9.206;2023-04-09T00:05:02;13.53;;;11.43;;
11313;SDS011;5712;48.858;9.206;2023-04-09T00:07:30;14.53;;;11.83;;
11313;SDS011;5712;48.858;9.206;2023-04-09T00:09:56;14.87;;;12.53;;
11313;SDS011;5712;48.858;9.206;2023-04-09T00:12:23;16.57;;;12.93;;
11313;SDS011;5712;48.858;9.206;2023-04-09T00:14:49;14.37;;;12.57;;
11313;SDS011;5712;48.858;9.206;2023-04-09T00:17:16;17.40;;;13.40;;
11313;SDS011;5712;48.858;9.206;2023-04-09T00:19:43;16.67;;;13.30;;
11313;SDS011;5712;48.858;9.206;2023-04-09T00:22:09;17.47;;;13.87;;
11313;SDS011;5712;48.858;9.206;2023-04-09T00:24:37;17.23;;;14.30;;
11313;SDS011;5712;48.858;9.206;2023-04-09T00:27:03;16.63;;;14.27;;
11313;SDS011;5712;48.858;9.206;2023-04-09T00:29:30;17.47;;;14.03;;
11313;SDS011;5712;48.858;9.206;2023-04-09T00:31:57;16.10;;;13.20;;
11313;SDS011;5712;48.858;9.206;2023-04-09T00:34:23;16.77;;;13.10;;
11313;SDS011;5712;48.858;9.206;2023-04-09T00:36:50;15.40;;;13.37;;
11313;SDS011;5712;48.858;9.206;2023-04-09T00:39:16;15.10;;;12.20;;
11313;SDS011;5712;48.858;9.206;2023-04-09T00:41:44;16.57;;;13.23;;
11313;SDS011;5712;48.858;9.206;2023-04-09T00:44:10;15.97;;;12.80;;
11313;SDS011;5712;48.858;9.206;2023-04-09T00:46:37;16.63;;;12.30;;
11313;SDS011;5712;48.858;9.206;2023-04-09T00:49:04;15.70;;;12.70;;
11313;SDS011;5712;48.858;9.206;2023-04-09T00:51:30;15.60;;;12.80;;
11313;SDS011;5712;48.858;9.206;2023-04-09T00:53:57;15.10;;;13.07;;
11313;SDS011;5712;48.858;9.206;2023-04-09T00:56:23;14.87;;;12.83;;
11313;SDS011;5712;48.858;9.206;2023-04-09T00:58:52;16.17;;;13.60;;
11313;SDS011;5712;48.858;9.206;2023-04-09T01:01:19;14.80;;;12.43;;
11313;SDS011;5712;48.858;9.206;2023-04-09T01:03:45;15.40;;;13.10;;
11313;SDS011;5712;48.858;9.206;2023-04-09T01:06:14;15.37;;;12.57;;
11313;SDS011;5712;48.858;9.206;2023-04-09T01:08:48;16.03;;;12.87;;
11313;SDS011;5712;48.858;9.206;2023-04-09T01:11:23;14.47;;;12.23;;
11313;SDS011;5712;48.858;9.206;2023-04-09T01:14:00;14.77;;;13.03;;
11313;SDS011;5712;48.858;9.206;2023-04-09T01:16:31;15.97;;;12.43;;
11313;SDS011;5712;48.858;9.206;2023-04-09T01:19:01;16.20;;;13.00;;
11313;SDS011;5712;48.858;9.206;2023-04-09T01:21:35;16.10;;;12.57;;
11313;SDS011;5712;48.858;9.206;2023-04-09T01:24:08;16.47;;;12.97;;
11313;SDS011;5712;48.858;9.206;2023-04-09T01:26:57;16.37;;;13.37;;
11313;SDS011;5712;48.858;9.206;2023-04-09T01:29:30;15.40;;;13.17;;
11313;SDS011;5712;48.858;9.206;2023-04-09T01:31:59;15.90;;;12.67;;
11313;SDS011;5712;48.858;9.206;2023-04-09T01:34:28;15.47;;;12.83;;
11313;SDS011;5712;48.858;9.206;2023-04-09T01:36:56;16.40;;;12.87;;
11313;SDS011;5712;48.858;9.206;2023-04-09T01:39:25;15.03;;;11.80;;
11313;SDS011;5712;48.858;9.206;2023-04-09T01:41:52;16.37;;;11.40;;
11313;SDS011;5712;48.858;9.206;2023-04-09T01:44:20;15.20;;;11.80;;
11313;SDS011;5712;48.858;9.206;2023-04-09T01:46:50;15.80;;;12.30;;
11313;SDS011;5712;48.858;9.206;2023-04-09T01:49:19;14.33;;;11.23;;
11313;SDS011;5712;48.858;9.206;2023-04-09T01:51:47;15.83;;;11.80;;
11313;SDS011;5712;48.858;9.206;2023-04-09T01:54:14;14.30;;;12.23;;
11313;SDS011;5712;48.858;9.206;2023-04-09T01:56:41;16.87;;;13.20;;
11313;SDS011;5712;48.858;9.206;2023-04-09T01:59:08;14.17;;;11.63;;
11313;SDS011;5712;48.858;9.206;2023-04-09T02:01:37;14.50;;;11.93;;
11313;SDS011;5712;48.858;9.206;2023-04-09T02:04:08;13.87;;;12.37;;
11313;SDS011;5712;48.858;9.206;2023-04-09T02:06:39;15.83;;;12.77;;
11313;SDS011;5712;48.858;9.206;2023-04-09T02:09:09;15.03;;;12.67;;
11313;SDS011;5712;48.858;9.206;2023-04-09T02:11:38;16.70;;;13.10;;
11313;SDS011;5712;48.858;9.206;2023-04-09T02:14:07;15.50;;;12.70;;
11313;SDS011;5712;48.858;9.206;2023-04-09T02:16:35;15.07;;;13.20;;
11313;SDS011;5712;48.858;9.206;2023-04-09T02:19:03;16.20;;;13.37;;
11313;SDS011;5712;48.858;9.206;2023-04-09T02:21:31;16.07;;;12.87;;
11313;SDS011;5712;48.858;9.206;2023-04-09T02:23:57;16.03;;;12.70;;
11313;SDS011;5712;48.858;9.206;2023-04-09T02:26:24;16.57;;;13.40;;
11313;SDS011;5712;48.858;9.206;2023-04-09T02:28:51;16.50;;;13.53;;
11313;SDS011;5712;48.858;9.206;2023-04-09T02:31:17;14.70;;;12.17;;
11313;SDS011;5712;48.858;9.206;2023-04-09T02:33:44;16.73;;;12.63;;
11313;SDS011;5712;48.858;9.206;2023-04-09T02:36:10;14.40;;;12.63;;
11313;SDS011;5712;48.858;9.206;2023-04-09T02:38:39;15.63;;;12.23;;
11313;SDS011;5712;48.858;9.206;2023-04-09T02:41:06;15.00;;;12.30;;
11313;SDS011;5712;48.858;9.206;2023-04-09T02:43:33;15.20;;;12.13;;
11313;SDS011;5712;48.858;9.206;2023-04-09T02:45:59;16.20;;;13.03;;
11313;SDS011;5712;48.858;9.206;2023-04-09T02:48:26;15.67;;;12.87;;
11313;SDS011;5712;48.858;9.206;2023-04-09T02:50:52;15.47;;;12.43;;
11313;SDS011;5712;48.858;9.206;2023-04-09T02:53:19;14.50;;;11.80;;
11313;SDS011;5712;48.858;9.206;2023-04-09T02:55:47;16.17;;;12.77;;
11313;SDS011;5712;48.858;9.206;2023-04-09T02:58:14;15.40;;;12.37;;
11313;SDS011;5712;48.858;9.206;2023-04-09T03:00:40;16.00;;;13.17;;
11313;SDS011;5712;48.858;9.206;2023-04-09T03:03:07;14.87;;;12.13;;
11313;SDS011;5712;48.858;9.206;2023-04-09T03:05:33;14.33;;;11.90;;
11313;SDS011;5712;48.858;9.206;2023-04-09T03:08:00;15.97;;;12.60;;
11313;SDS011;5712;48.858;9.206;2023-04-09T03:10:27;17.33;;;13.40;;
11313;SDS011;5712;48.858;9.206;2023-04-09T03:12:54;15.10;;;12.53;;
11313;SDS011;5712;48.858;9.206;2023-04-09T03:15:21;15.70;;;13.07;;
11313;SDS011;5712;48.858;9.206;2023-04-09T03:17:47;17.27;;;11.97;;
11313;SDS011;5712;48.858;9.206;2023-04-09T03:20:14;14.23;;;12.00;;
11313;SDS011;5712;48.858;9.206;2023-04-09T03:22:41;15.43;;;12.13;;
11313;SDS011;5712;48.858;9.206;2023-04-09T03:25:07;16.43;;;12.20;;
11313;SDS011;5712;48.858;9.206;2023-04-09T03:27:34;15.17;;;12.60;;
11313;SDS011;5712;48.858;9.206;2023-04-09T03:30:02;16.57;;;13.03;;
11313;SDS011;5712;48.858;9.206;2023-04-09T03:32:29;15.50;;;13.00;;
11313;SDS011;5712;48.858;9.206;2023-04-09T03:34:56;16.70;;;12.97;;
11313;SDS011;5712;48.858;9.206;2023-04-09T03:37:22;15.00;;;11.87;;
11313;SDS011;5712;48.858;9.206;2023-04-09T03:39:49;16.27;;;11.50;;
11313;SDS011;5712;48.858;9.206;2023-04-09T03:42:15;13.87;;;11.53;;
11313;SDS011;5712;48.858;9.206;2023-04-09T03:44:42;17.77;;;12.73;;
11313;SDS011;5712;48.858;9.206;2023-04-09T03:47:10;15.37;;;12.03;;
11313;SDS011;5712;48.858;9.206;2023-04-09T03:49:36;15.53;;;12.47;;
11313;SDS011;5712;48.858;9.206;2023-04-09T03:52:03;14.43;;;12.07;;
11313;SDS011;5712;48.858;9.206;2023-04-09T03:54:31;13.10;;;11.03;;
11313;SDS011;5712;48.858;9.206;2023-04-09T03:56:58;16.17;;;11.93;;
11313;SDS011;5712;48.858;9.206;2023-04-09T03:59:25;16.73;;;11.93;;
11313;SDS011;5712;48.858;9.206;2023-04-09T04:01:51;15.73;;;12.27;;
11313;SDS011;5712;48.858;9.206;2023-04-09T04:04:19;16.47;;;12.50;;
11313;SDS011;5712;48.858;9.206;2023-04-09T04:06:46;15.67;;;12.43;;
11313;SDS011;5712;48.858;9.206;2023-04-09T04:09:12;15.33;;;12.07;;
11313;SDS011;5712;48.858;9.206;2023-04-09T04:11:39;15.53;;;11.93;;
11313;SDS011;5712;48.858;9.206;2023-04-09T04:14:05;15.83;;;12.23;;
11313;SDS011;5712;48.858;9.206;2023-04-09T04:16:32;13.20;;;11.10;;
11313;SDS011;5712;48.858;9.206;2023-04-09T04:18:58;15.90;;;12.60;;
11313;SDS011;5712;48.858;9.206;2023-04-09T04:21:26;15.73;;;11.77;;
11313;SDS011;5712;48.858;9.206;2023-04-09T04:23:53;15.10;;;12.07;;
11313;SDS011;5712;48.858;9.206;2023-04-09T04:26:19;15.17;;;11.57;;
11313;SDS011;5712;48.858;9.206;2023-04-09T04:28:46;15.90;;;12.07;;
11313;SDS011;5712;48.858;9.206;2023-04-09T04:31:12;16.37;;;11.70;;
11313;SDS011;5712;48.858;9.206;2023-04-09T04:33:39;15.60;;;11.30;;
11313;SDS011;5712;48.858;9.206;2023-04-09T04:36:07;14.83;;;11.77;;
11313;SDS011;5712;48.858;9.206;2023-04-09T04:38:36;16.20;;;12.17;;
11313;SDS011;5712;48.858;9.206;2023-04-09T04:41:04;16.40;;;12.13;;
11313;SDS011;5712;48.858;9.206;2023-04-09T04:43:30;13.93;;;11.17;;
11313;SDS011;5712;48.858;9.206;2023-04-09T04:45:57;16.83;;;12.00;;
11313;SDS011;5712;48.858;9.206;2023-04-09T04:48:24;16.10;;;12.07;;
11313;SDS011;5712;48.858;9.206;2023-04-09T04:50:54;14.80;;;12.37;;
11313;SDS011;5712;48.858;9.206;2023-04-09T04:53:22;14.33;;;12.00;;
11313;SDS011;5712;48.858;9.206;2023-04-09T04:55:50;15.77;;;11.63;;
11313;SDS011;5712;48.858;9.206;2023-04-09T04:58:17;16.03;;;11.97;;
11313;SDS011;5712;48.858;9.206;2023-04-09T05:00:44;14.07;;;11.03;;
11313;SDS011;5712;48.858;9.206;2023-04-09T05:03:10;14.73;;;11.67;;
11313;SDS011;5712;48.858;9.206;2023-04-09T05:05:37;15.50;;;11.67;;
11313;SDS011;5712;48.858;9.206;2023-04-09T05:08:04;13.23;;;11.17;;
11313;SDS011;5712;48.858;9.206;2023-04-09T05:10:31;13.67;;;11.37;;
11313;SDS011;5712;48.858;9.206;2023-04-09T05:12:58;13.97;;;10.93;;
11313;SDS011;5712;48.858;9.206;2023-04-09T05:15:25;14.83;;;11.67;;
11313;SDS011;5712;48.858;9.206;2023-04-09T05:17:51;15.03;;;11.20;;
11313;SDS011;5712;48.858;9.206;2023-04-09T05:20:18;13.83;;;11.00;;
11313;SDS011;5712;48.858;9.206;2023-04-09T05:22:44;14.47;;;11.97;;
11313;SDS011;5712;48.858;9.206;2023-04-09T05:25:11;15.83;;;11.50;;
11313;SDS011;5712;48.858;9.206;2023-04-09T05:27:40;14.17;;;11.57;;
11313;SDS011;5712;48.858;9.206;2023-04-09T05:30:08;16.23;;;12.73;;
11313;SDS011;5712;48.858;9.206;2023-04-09T05:32:35;15.00;;;11.33;;
11313;SDS011;5712;48.858;9.206;2023-04-09T05:35:01;13.70;;;11.53;;
11313;SDS011;5712;48.858;9.206;2023-04-09T05:37:28;13.77;;;11.50;;
11313;SDS011;5712;48.858;9.206;2023-04-09T05:39:55;16.90;;;11.77;;
11313;SDS011;5712;48.858;9.206;2023-04-09T05:42:21;13.57;;;10.97;;
11313;SDS011;5712;48.858;9.206;2023-04-09T05:44:48;14.77;;;12.00;;
11313;SDS011;5712;48.858;9.206;2023-04-09T05:47:16;14.23;;;11.13;;
11313;SDS011;5712;48.858;9.206;2023-04-09T05:49:42;15.17;;;12.03;;
11313;SDS011;5712;48.858;9.206;2023-04-09T05:52:09;14.00;;;10.80;;
11313;SDS011;5712;48.858;9.206;2023-04-09T05:54:35;16.17;;;11.77;;
11313;SDS011;5712;48.858;9.206;2023-04-09T05:57:02;14.73;;;11.50;;
11313;SDS011;5712;48.858;9.206;2023-04-09T05:59:28;13.37;;;11.03;;
11313;SDS011;5712;48.858;9.206;2023-04-09T06:01:55;13.10;;;10.47;;
11313;SDS011;5712;48.858;9.206;2023-04-09T06:04:23;14.23;;;11.23;;
11313;SDS011;5712;48.858;9.206;2023-04-09T06:06:49;14.40;;;11.17;;
11313;SDS011;5712;48.858;9.206;2023-04-09T06:09:16;13.80;;;11.57;;
11313;SDS011;5712;48.858;9.206;2023-04-09T06:11:42;13.90;;;11.43;;
11313;SDS011;5712;48.858;9.206;2023-04-09T06:14:09;13.87;;;11.33;;
11313;SDS011;5712;48.858;9.206;2023-04-09T06:16:40;13.60;;;10.77;;
11313;SDS011;5712;48.858;9.206;2023-04-09T06:19:06;14.82;;;12.07;;
11313;SDS011;5712;48.858;9.206;2023-04-09T06:21:34;13.80;;;10.90;;
11313;SDS011;5712;48.858;9.206;2023-04-09T06:24:01;15.23;;;11.67;;
11313;SDS011;5712;48.858;9.206;2023-04-09T06:26:27;13.97;;;11.27;;
11313;SDS011;5712;48.858;9.206;2023-04-09T06:28:54;14.07;;;10.83;;
11313;SDS011;5712;48.858;9.206;2023-04-09T06:31:21;12.63;;;10.27;;
11313;SDS011;5712;48.858;9.206;2023-04-09T06:33:47;14.37;;;11.40;;
11313;SDS011;5712;48.858;9.206;2023-04-09T06:36:14;16.03;;;11.77;;
11313;SDS011;5712;48.858;9.206;2023-04-09T06:38:42;14.30;;;11.20;;
11313;SDS011;5712;48.858;9.206;2023-04-09T06:41:08;14.17;;;10.57;;
11313;SDS011;5712;48.858;9.206;2023-04-09T06:43:36;12.83;;;10.43;;
11313;SDS011;5712;48.858;9.206;2023-04-09T06:46:03;13.97;;;11.17;;
11313;SDS011;5712;48.858;9.206;2023-04-09T06:48:29;13.53;;;11.27;;
11313;SDS011;5712;48.858;9.206;2023-04-09T06:50:56;12.53;;;10.17;;
11313;SDS011;5712;48.858;9.206;2023-04-09T06:53:22;12.33;;;9.50;;
11313;SDS011;5712;48.858;9.206;2023-04-09T06:55:50;12.93;;;10.00;;
11313;SDS011;5712;48.858;9.206;2023-04-09T06:58:17;13.97;;;10.33;;
11313;SDS011;5712;48.858;9.206;2023-04-09T07:00:45;12.63;;;9.67;;
11313;SDS011;5712;48.858;9.206;2023-04-09T07:03:11;14.13;;;11.17;;
11313;SDS011;5712;48.858;9.206;2023-04-09T07:05:38;12.20;;;9.67;;
11313;SDS011;5712;48.858;9.206;2023-04-09T07:08:04;12.00;;;9.77;;
11313;SDS011;5712;48.858;9.206;2023-04-09T07:10:31;12.13;;;9.80;;
11313;SDS011;5712;48.858;9.206;2023-04-09T07:13:03;12.83;;;9.70;;
11313;SDS011;5712;48.858;9.206;2023-04-09T07:15:38;11.47;;;8.73;;
11313;SDS011;5712;48.858;9.206;2023-04-09T07:18:05;11.90;;;9.07;;
11313;SDS011;5712;48.858;9.206;2023-04-09T07:20:31;11.83;;;8.97;;
11313;SDS011;5712;48.858;9.206;2023-04-09T07:22:58;11.25;;;9.90;;
11313;SDS011;5712;48.858;9.206;2023-04-09T07:25:25;11.40;;;9.30;;
11313;SDS011;5712;48.858;9.206;2023-04-09T07:27:52;11.50;;;9.27;;
11313;SDS011;5712;48.858;9.206;2023-04-09T07:30:20;12.90;;;9.33;;
11313;SDS011;5712;48.858;9.206;2023-04-09T07:32:46;11.63;;;9.17;;
11313;SDS011;5712;48.858;9.206;2023-04-09T07:35:13;11.37;;;9.30;;
11313;SDS011;5712;48.858;9.206;2023-04-09T07:37:39;9.67;;;8.63;;
11313;SDS011;5712;48.858;9.206;2023-04-09T07:40:06;9.93;;;7.57;;
11313;SDS011;5712;48.858;9.206;2023-04-09T07:42:35;11.47;;;9.43;;
11313;SDS011;5712;48.858;9.206;2023-04-09T07:45:02;10.60;;;8.43;;
11313;SDS011;5712;48.858;9.206;2023-04-09T07:47:30;11.13;;;8.63;;
11313;SDS011;5712;48.858;9.206;2023-04-09T07:49:57;10.97;;;8.87;;
11313;SDS011;5712;48.858;9.206;2023-04-09T07:52:24;11.20;;;8.60;;
11313;SDS011;5712;48.858;9.206;2023-04-09T07:54:51;11.27;;;8.40;;
11313;SDS011;5712;48.858;9.206;2023-04-09T07:57:18;11.20;;;9.10;;
11313;SDS011;5712;48.858;9.206;2023-04-09T07:59:45;11.53;;;9.60;;
11313;SDS011;5712;48.858;9.206;2023-04-09T08:02:11;11.33;;;8.93;;
11313;SDS011;5712;48.858;9.206;2023-04-09T08:04:40;11.27;;;9.20;;
11313;SDS011;5712;48.858;9.206;2023-04-09T08:07:06;10.70;;;8.80;;
11313;SDS011;5712;48.858;9.206;2023-04-09T08:09:33;9.47;;;7.60;;
11313;SDS011;5712;48.858;9.206;2023-04-09T08:14:27;10.40;;;8.03;;
11313;SDS011;5712;48.858;9.206;2023-04-09T08:16:54;10.57;;;8.47;;
11313;SDS011;5712;48.858;9.206;2023-04-09T08:19:20;10.27;;;7.93;;
11313;SDS011;5712;48.858;9.206;2023-04-09T08:21:48;8.30;;;6.90;;
11313;SDS011;5712;48.858;9.206;2023-04-09T08:24:15;8.00;;;7.10;;
11313;SDS011;5712;48.858;9.206;2023-04-09T08:26:42;7.93;;;6.70;;
11313;SDS011;5712;48.858;9.206;2023-04-09T08:29:09;7.70;;;6.90;;
11313;SDS011;5712;48.858;9.206;2023-04-09T08:31:37;8.10;;;7.00;;
11313;SDS011;5712;48.858;9.206;2023-04-09T08:34:04;7.93;;;6.90;;
11313;SDS011;5712;48.858;9.206;2023-04-09T08:36:31;8.13;;;6.83;;
11313;SDS011;5712;48.858;9.206;2023-04-09T08:39:00;8.47;;;7.00;;
11313;SDS011;5712;48.858;9.206;2023-04-09T08:41:27;9.33;;;6.80;;
11313;SDS011;5712;48.858;9.206;2023-04-09T08:43:54;9.33;;;7.23;;
11313;SDS011;5712;48.858;9.206;2023-04-09T08:46:22;8.27;;;6.90;;
11313;SDS011;5712;48.858;9.206;2023-04-09T08:48:50;7.80;;;6.77;;
11313;SDS011;5712;48.858;9.206;2023-04-09T08:51:17;7.83;;;6.93;;
11313;SDS011;5712;48.858;9.206;2023-04-09T08:53:45;9.37;;;7.83;;
11313;SDS011;5712;48.858;9.206;2023-04-09T08:56:15;9.25;;;8.25;;
11313;SDS011;5712;48.858;9.206;2023-04-09T08:58:42;8.63;;;7.53;;
11313;SDS011;5712;48.858;9.206;2023-04-09T09:01:19;8.53;;;7.37;;
11313;SDS011;5712;48.858;9.206;2023-04-09T09:03:54;7.73;;;6.80;;
11313;SDS011;5712;48.858;9.206;2023-04-09T09:06:22;8.83;;;6.57;;
11313;SDS011;5712;48.858;9.206;2023-04-09T09:08:59;6.80;;;6.10;;
11313;SDS011;5712;48.858;9.206;2023-04-09T09:11:28;6.60;;;5.83;;
11313;SDS011;5712;48.858;9.206;2023-04-09T09:14:01;7.27;;;6.47;;
11313;SDS011;5712;48.858;9.206;2023-04-09T09:16:30;6.43;;;5.80;;
11313;SDS011;5712;48.858;9.206;2023-04-09T09:18:59;8.80;;;7.03;;
11313;SDS011;5712;48.858;9.206;2023-04-09T09:21:26;9.27;;;6.97;;
11313;SDS011;5712;48.858;9.206;2023-04-09T09:23:54;7.07;;;6.17;;
11313;SDS011;5712;48.858;9.206;2023-04-09T09:26:21;6.03;;;5.43;;
11313;SDS011;5712;48.858;9.206;2023-04-09T09:28:51;7.30;;;6.53;;
11313;SDS011;5712;48.858;9.206;2023-04-09T09:31:18;7.43;;;6.20;;
11313;SDS011;5712;48.858;9.206;2023-04-09T09:33:45;6.93;;;6.00;;
11313;SDS011;5712;48.858;9.206;2023-04-09T09:36:13;7.80;;;6.40;;
11313;SDS011;5712;48.858;9.206;2023-04-09T09:38:50;6.13;;;5.50;;
11313;SDS011;5712;48.858;9.206;2023-04-09T09:41:18;7.40;;;6.17;;
11313;SDS011;5712;48.858;9.206;2023-04-09T09:43:45;6.43;;;5.83;;
11313;SDS011;5712;48.858;9.206;2023-04-09T09:46:13;6.67;;;5.73;;
11313;SDS011;5712;48.858;9.206;2023-04-09T09:48:40;6.83;;;5.90;;
11313;SDS011;5712;48.858;9.206;2023-04-09T09:51:07;6.80;;;6.10;;
11313;SDS011;5712;48.858;9.206;2023-04-09T09:53:35;6.80;;;6.10;;
11313;SDS011;5712;48.858;9.206;2023-04-09T09:56:03;5.80;;;5.03;;
11313;SDS011;5712;48.858;9.206;2023-04-09T09:58:31;6.90;;;5.80;;
11313;SDS011;5712;48.858;9.206;2023-04-09T10:01:01;5.13;;;4.60;;
11313;SDS011;5712;48.858;9.206;2023-04-09T10:03:34;5.10;;;4.60;;
11313;SDS011;5712;48.858;9.206;2023-04-09T10:06:03;6.23;;;4.90;;
11313;SDS011;5712;48.858;9.206;2023-04-09T10:08:30;6.27;;;5.37;;
11313;SDS011;5712;48.858;9.206;2023-04-09T10:11:00;6.80;;;6.00;;
11313;SDS011;5712;48.858;9.206;2023-04-09T10:13:28;6.83;;;6.10;;
11313;SDS011;5712;48.858;9.206;2023-04-09T10:15:57;7.20;;;6.47;;
11313;SDS011;5712;48.858;9.206;2023-04-09T10:18:25;7.00;;;6.20;;
11313;SDS011;5712;48.858;9.206;2023-04-09T10:20:55;7.73;;;6.93;;
11313;SDS011;5712;48.858;9.206;2023-04-09T10:23:26;7.60;;;6.80;;
11313;SDS011;5712;48.858;9.206;2023-04-09T10:25:58;6.10;;;5.43;;
11313;SDS011;5712;48.858;9.206;2023-04-09T10:28:25;5.30;;;4.80;;
11313;SDS011;5712;48.858;9.206;2023-04-09T10:30:52;4.27;;;3.87;;
11313;SDS011;5712;48.858;9.206;2023-04-09T10:33:21;4.17;;;3.70;;
11313;SDS011;5712;48.858;9.206;2023-04-09T10:35:50;4.33;;;3.70;;
11313;SDS011;5712;48.858;9.206;2023-04-09T10:38:20;4.23;;;3.70;;
11313;SDS011;5712;48.858;9.206;2023-04-09T10:40:58;3.87;;;3.47;;
11313;SDS011;5712;48.858;9.206;2023-04-09T10:43:31;4.87;;;4.37;;
11313;SDS011;5712;48.858;9.206;2023-04-09T10:45:59;6.77;;;4.80;;
11313;SDS011;5712;48.858;9.206;2023-04-09T10:48:26;5.40;;;4.70;;
11313;SDS011;5712;48.858;9.206;2023-04-09T10:50:57;4.40;;;4.00;;
11313;SDS011;5712;48.858;9.206;2023-04-09T10:53:25;4.83;;;4.10;;
11313;SDS011;5712;48.858;9.206;2023-04-09T10:55:52;4.40;;;3.90;;
11313;SDS011;5712;48.858;9.206;2023-04-09T10:58:19;4.60;;;4.20;;
11313;SDS011;5712;48.858;9.206;2023-04-09T11:00:46;5.63;;;5.10;;
11313;SDS011;5712;48.858;9.206;2023-04-09T11:03:21;5.20;;;4.70;;
11313;SDS011;5712;48.858;9.206;2023-04-09T11:05:54;4.90;;;4.33;;
11313;SDS011;5712;48.858;9.206;2023-04-09T11:08:28;5.30;;;4.80;;
11313;SDS011;5712;48.858;9.206;2023-04-09T11:10:56;4.73;;;4.27;;
11313;SDS011;5712;48.858;9.206;2023-04-09T11:13:25;4.50;;;4.10;;
11313;SDS011;5712;48.858;9.206;2023-04-09T11:15:53;4.90;;;4.50;;
11313;SDS011;5712;48.858;9.206;2023-04-09T11:18:21;5.30;;;4.80;;
11313;SDS011;5712;48.858;9.206;2023-04-09T11:20:49;4.83;;;4.33;;
11313;SDS011;5712;48.858;9.206;2023-04-09T11:23:19;4.90;;;4.40;;
11313;SDS011;5712;48.858;9.206;2023-04-09T11:25:48;4.80;;;4.30;;
11313;SDS011;5712;48.858;9.206;2023-04-09T11:28:16;4.53;;;4.10;;
11313;SDS011;5712;48.858;9.206;2023-04-09T11:30:44;4.10;;;3.67;;
11313;SDS011;5712;48.858;9.206;2023-04-09T11:33:11;3.83;;;3.43;;
11313;SDS011;5712;48.858;9.206;2023-04-09T11:35:38;3.60;;;3.30;;
11313;SDS011;5712;48.858;9.206;2023-04-09T11:38:05;3.80;;;3.40;;
11313;SDS011;5712;48.858;9.206;2023-04-09T11:40:33;4.80;;;3.97;;
11313;SDS011;5712;48.858;9.206;2023-04-09T11:43:00;4.57;;;4.03;;
11313;SDS011;5712;48.858;9.206;2023-04-09T11:45:28;4.60;;;4.20;;
11313;SDS011;5712;48.858;9.206;2023-04-09T11:47:55;4.80;;;4.30;;
11313;SDS011;5712;48.858;9.206;2023-04-09T11:50:22;4.43;;;4.03;;
11313;SDS011;5712;48.858;9.206;2023-04-09T11:52:49;4.23;;;3.83;;
11313;SDS011;5712;48.858;9.206;2023-04-09T11:55:23;4.80;;;4.30;;
11313;SDS011;5712;48.858;9.206;2023-04-09T11:57:51;4.87;;;4.43;;
11313;SDS011;5712;48.858;9.206;2023-04-09T12:00:20;4.90;;;4.33;;
11313;SDS011;5712;48.858;9.206;2023-04-09T12:02:49;4.80;;;4.33;;
11313;SDS011;5712;48.858;9.206;2023-04-09T12:05:20;4.67;;;4.27;;
11313;SDS011;5712;48.858;9.206;2023-04-09T12:07:47;4.60;;;4.20;;
11313;SDS011;5712;48.858;9.206;2023-04-09T12:10:14;4.37;;;3.97;;
11313;SDS011;5712;48.858;9.206;2023-04-09T12:12:41;4.67;;;4.20;;
11313;SDS011;5712;48.858;9.206;2023-04-09T12:15:09;4.33;;;3.93;;
11313;SDS011;5712;48.858;9.206;2023-04-09T12:17:39;4.13;;;3.73;;
11313;SDS011;5712;48.858;9.206;2023-04-09T12:20:05;4.03;;;3.53;;
11313;SDS011;5712;48.858;9.206;2023-04-09T12:22:33;3.97;;;3.50;;
11313;SDS011;5712;48.858;9.206;2023-04-09T12:25:05;3.70;;;3.40;;
11313;SDS011;5712;48.858;9.206;2023-04-09T12:27:32;4.10;;;3.70;;
11313;SDS011;5712;48.858;9.206;2023-04-09T12:29:58;3.63;;;3.33;;
11313;SDS011;5712;48.858;9.206;2023-04-09T12:32:25;3.70;;;3.40;;
11313;SDS011;5712;48.858;9.206;2023-04-09T12:34:53;3.60;;;3.30;;
11313;SDS011;5712;48.858;9.206;2023-04-09T12:37:20;4.93;;;3.70;;
11313;SDS011;5712;48.858;9.206;2023-04-09T12:39:46;4.03;;;3.67;;
11313;SDS011;5712;48.858;9.206;2023-04-09T12:42:13;3.40;;;3.10;;
11313;SDS011;5712;48.858;9.206;2023-04-09T12:44:40;4.00;;;3.57;;
11313;SDS011;5712;48.858;9.206;2023-04-09T12:47:06;4.00;;;3.60;;
11313;SDS011;5712;48.858;9.206;2023-04-09T12:49:33;4.30;;;3.90;;
11313;SDS011;5712;48.858;9.206;2023-04-09T12:52:00;4.27;;;3.87;;
11313;SDS011;5712;48.858;9.206;2023-04-09T12:54:27;3.87;;;3.57;;
11313;SDS011;5712;48.858;9.206;2023-04-09T12:56:53;4.37;;;3.93;;
11313;SDS011;5712;48.858;9.206;2023-04-09T12:59:20;4.10;;;3.70;;
11313;SDS011;5712;48.858;9.206;2023-04-09T13:01:46;4.20;;;3.80;;
11313;SDS011;5712;48.858;9.206;2023-04-09T13:04:13;4.33;;;3.93;;
11313;SDS011;5712;48.858;9.206;2023-04-09T13:06:40;4.37;;;3.80;;
11313;SDS011;5712;48.858;9.206;2023-04-09T13:09:08;4.53;;;3.87;;
11313;SDS011;5712;48.858;9.206;2023-04-09T13:11:34;3.83;;;3.53;;
11313;SDS011;5712;48.858;9.206;2023-04-09T13:14:01;3.83;;;3.43;;
11313;SDS011;5712;48.858;9.206;2023-04-09T13:16:27;4.00;;;3.60;;
11313;SDS011;5712;48.858;9.206;2023-04-09T13:18:54;4.80;;;3.90;;
11313;SDS011;5712;48.858;9.206;2023-04-09T13:21:20;4.60;;;4.00;;
11313;SDS011;5712;48.858;9.206;2023-04-09T13:23:47;4.43;;;4.03;;
11313;SDS011;5712;48.858;9.206;2023-04-09T13:26:14;4.53;;;3.87;;
11313;SDS011;5712;48.858;9.206;2023-04-09T13:28:41;4.17;;;3.70;;
11313;SDS011;5712;48.858;9.206;2023-04-09T13:31:08;4.30;;;3.90;;
11313;SDS011;5712;48.858;9.206;2023-04-09T13:33:35;4.30;;;3.90;;
11313;SDS011;5712;48.858;9.206;2023-04-09T13:36:01;4.20;;;3.80;;
11313;SDS011;5712;48.858;9.206;2023-04-09T13:38:27;4.13;;;3.73;;
11313;SDS011;5712;48.858;9.206;2023-04-09T13:40:54;3.83;;;3.43;;
11313;SDS011;5712;48.858;9.206;2023-04-09T13:43:22;4.40;;;3.90;;
11313;SDS011;5712;48.858;9.206;2023-04-09T13:45:52;3.90;;;3.50;;
11313;SDS011;5712;48.858;9.206;2023-04-09T13:48:18;4.17;;;3.70;;
11313;SDS011;5712;48.858;9.206;2023-04-09T13:50:45;4.20;;;3.80;;
11313;SDS011;5712;48.858;9.206;2023-04-09T13:53:12;4.27;;;3.80;;
11313;SDS011;5712;48.858;9.206;2023-04-09T13:55:38;4.50;;;3.80;;
11313;SDS011;5712;48.858;9.206;2023-04-09T13:58:05;4.10;;;3.50;;
11313;SDS011;5712;48.858;9.206;2023-04-09T14:00:33;4.03;;;3.63;;
11313;SDS011;5712;48.858;9.206;2023-04-09T14:03:00;3.87;;;3.53;;
11313;SDS011;5712;48.858;9.206;2023-04-09T14:05:27;4.13;;;3.73;;
11313;SDS011;5712;48.858;9.206;2023-04-09T14:07:53;4.13;;;3.43;;
11313;SDS011;5712;48.858;9.206;2023-04-09T14:10:20;4.00;;;3.60;;
11313;SDS011;5712;48.858;9.206;2023-04-09T14:12:46;4.07;;;3.67;;
11313;SDS011;5712;48.858;9.206;2023-04-09T14:15:13;3.97;;;3.57;;
11313;SDS011;5712;48.858;9.206;2023-04-09T14:17:41;4.10;;;3.70;;
11313;SDS011;5712;48.858;9.206;2023-04-09T14:20:08;4.10;;;3.40;;
11313;SDS011;5712;48.858;9.206;2023-04-09T14:22:35;4.00;;;3.60;;
11313;SDS011;5712;48.858;9.206;2023-04-09T14:25:02;4.37;;;3.67;;
11313;SDS011;5712;48.858;9.206;2023-04-09T14:27:28;3.97;;;3.53;;
11313;SDS011;5712;48.858;9.206;2023-04-09T14:29:55;3.90;;;3.50;;
11313;SDS011;5712;48.858;9.206;2023-04-09T14:32:21;4.27;;;3.60;;
11313;SDS011;5712;48.858;9.206;2023-04-09T14:34:49;4.73;;;3.70;;
11313;SDS011;5712;48.858;9.206;2023-04-09T14:37:15;4.30;;;3.80;;
11313;SDS011;5712;48.858;9.206;2023-04-09T14:39:42;4.50;;;4.10;;
11313;SDS011;5712;48.858;9.206;2023-04-09T14:42:08;4.73;;;3.93;;
11313;SDS011;5712;48.858;9.206;2023-04-09T14:44:35;4.13;;;3.67;;
11313;SDS011;5712;48.858;9.206;2023-04-09T14:47:01;4.17;;;3.63;;
11313;SDS011;5712;48.858;9.206;2023-04-09T14:49:28;4.20;;;3.80;;
11313;SDS011;5712;48.858;9.206;2023-04-09T14:51:56;4.40;;;3.77;;